This is the latest recevied weather packets stored in our database for station/object IZ1RFL-3. If no packets are shown the sender has not sent any weather packets the latest 10 day(s).
| Time | Temp. | Humidity | Pressure | Rain* | Wind** | Luminosity | Snow |
|---|---|---|---|---|---|---|---|
| 1778261468 | 20° C | 49% | 1016.6 hPa | - | - | - | - |
| 1778260568 | 20° C | 50% | 1016.5 hPa | - | - | - | - |
| 1778259668 | 20° C | 48% | 1016.4 hPa | - | - | - | - |
| 1778258768 | 20° C | 48% | 1016.4 hPa | - | - | - | - |
| 1778257868 | 20.56° C | 45% | 1016.4 hPa | - | - | - | - |
| 1778256968 | 20.56° C | 46% | 1016.4 hPa | - | - | - | - |
| 1778256068 | 20.56° C | 48% | 1016.4 hPa | - | - | - | - |
| 1778255168 | 21.11° C | 46% | 1016.5 hPa | - | - | - | - |
| 1778254268 | 21.11° C | 45% | 1016.5 hPa | - | - | - | - |
| 1778253368 | 21.11° C | 47% | 1016.6 hPa | - | - | - | - |
| 1778252468 | 21.11° C | 47% | 1016.8 hPa | - | - | - | - |
| 1778251568 | 21.11° C | 47% | 1016.9 hPa | - | - | - | - |
| 1778250668 | 21.11° C | 49% | 1017.1 hPa | - | - | - | - |
| 1778249768 | 21.11° C | 51% | 1017.2 hPa | - | - | - | - |
| 1778248868 | 20.56° C | 53% | 1017.3 hPa | - | - | - | - |
| 1778247968 | 20° C | 52% | 1017.4 hPa | - | - | - | - |
| 1778247068 | 21.11° C | 52% | 1017.5 hPa | - | - | - | - |
| 1778246168 | 21.11° C | 51% | 1017.7 hPa | - | - | - | - |
| 1778245268 | 21.11° C | 49% | 1017.8 hPa | - | - | - | - |
| 1778244368 | 19.44° C | 56% | 1017.8 hPa | - | - | - | - |
| 1778243468 | 20.56° C | 51% | 1017.9 hPa | - | - | - | - |
| 1778242568 | 20.56° C | 52% | 1018 hPa | - | - | - | - |
| 1778241668 | 20.56° C | 55% | 1018.1 hPa | - | - | - | - |
| 1778240768 | 20° C | 55% | 1018 hPa | - | - | - | - |
| 1778239868 | 20° C | 55% | 1018.2 hPa | - | - | - | - |
* Rain since midnight (hover to see other rain measurements)
** Current wind speed in m/s (hover to see current wind gust speed)